Time;durP1;ratioP1;P1;durP2;ratioP2;P2;SDS_P1;SDS_P2;PMS_P1;PMS_P2;Temp;Humidity;BMP_temperature;BMP_pressure;BME280_temperature;BME280_humidity;BME280_pressure;Samples;Min_cycle;Max_cycle;Signal;HPM_P1;HPM_P2
2021/01/15 00:02:19;;;;;;;3.90;2.53;;;7.10;58.40;;;;;;4955466;29;20508;-72
2021/01/15 00:04:45;;;;;;;5.88;4.45;;;6.90;59.00;;;;;;4946338;28;20480;-71
2021/01/15 00:07:11;;;;;;;7.47;5.22;;;7.30;58.10;;;;;;4956648;28;20409;-71
2021/01/15 00:09:37;;;;;;;7.57;5.57;;;7.50;58.50;;;;;;4946724;28;20408;-71
2021/01/15 00:12:04;;;;;;;6.90;5.05;;;7.60;58.40;;;;;;4947657;29;20419;-72
2021/01/15 00:14:30;;;;;;;6.30;5.35;;;7.60;58.80;;;;;;4965799;28;20398;-72
2021/01/15 00:16:56;;;;;;;7.75;5.68;;;7.40;59.90;;;;;;4956623;28;20770;-71
2021/01/15 00:19:22;;;;;;;7.70;5.82;;;7.40;60.20;;;;;;4955282;29;20408;-71
2021/01/15 00:21:48;;;;;;;8.40;6.40;;;7.30;60.60;;;;;;4956444;28;20400;-71
2021/01/15 00:24:16;;;;;;;7.95;5.97;;;6.90;62.60;;;;;;4955322;29;20413;-71
2021/01/15 00:26:43;;;;;;;8.65;6.47;;;6.60;63.80;;;;;;4955072;29;20964;-72
2021/01/15 00:29:09;;;;;;;8.38;6.15;;;6.60;63.90;;;;;;4955065;29;20425;-71
2021/01/15 00:31:38;;;;;;;9.65;7.03;;;6.40;64.30;;;;;;4954502;28;20418;-72
2021/01/15 00:34:06;;;;;;;9.30;6.80;;;6.20;64.50;;;;;;4956079;28;20460;-72
2021/01/15 00:36:32;;;;;;;8.07;5.90;;;6.20;64.80;;;;;;4956138;28;20982;-72
2021/01/15 00:38:58;;;;;;;8.00;6.05;;;6.30;64.30;;;;;;4954799;29;20461;-72
2021/01/15 00:41:25;;;;;;;8.00;5.75;;;6.40;63.60;;;;;;4952858;29;20398;-71
2021/01/15 00:43:50;;;;;;;8.40;5.82;;;6.50;62.50;;;;;;4954911;29;20402;-71
2021/01/15 00:46:27;;;;;;;8.03;5.83;;;6.50;62.70;;;;;;4954776;29;20927;-71
2021/01/15 00:48:54;;;;;;;8.65;5.97;;;6.40;62.90;;;;;;4954243;29;20799;-71
2021/01/15 00:51:20;;;;;;;7.95;5.82;;;6.30;63.70;;;;;;4955825;28;20418;-71
2021/01/15 00:53:46;;;;;;;7.87;6.27;;;6.20;64.50;;;;;;4955760;28;20468;-71
2021/01/15 00:56:16;;;;;;;8.15;6.05;;;6.20;64.00;;;;;;4963956;28;20488;-71
2021/01/15 00:58:42;;;;;;;8.77;6.10;;;6.20;63.90;;;;;;4964363;28;20408;-71
2021/01/15 01:01:11;;;;;;;8.70;6.10;;;6.10;64.00;;;;;;4957866;28;20400;-71
2021/01/15 01:03:37;;;;;;;6.72;5.55;;;6.10;64.70;;;;;;4960064;28;20840;-71
2021/01/15 01:06:08;;;;;;;7.63;5.67;;;6.10;65.30;;;;;;4957407;28;20485;-72
2021/01/15 01:08:34;;;;;;;7.38;6.25;;;6.20;65.20;;;;;;4961539;28;20485;-71
2021/01/15 01:11:00;;;;;;;9.38;6.50;;;6.10;65.50;;;;;;4955074;29;20461;-72
2021/01/15 01:13:26;;;;;;;8.27;6.88;;;6.10;66.40;;;;;;4954210;29;20406;-72
2021/01/15 01:15:52;;;;;;;9.55;6.78;;;6.00;65.70;;;;;;4955314;28;20436;-71
2021/01/15 01:18:18;;;;;;;8.80;6.40;;;5.90;65.50;;;;;;4955312;28;20456;-71
2021/01/15 01:20:44;;;;;;;8.17;6.07;;;5.90;65.00;;;;;;4954157;29;20417;-72
2021/01/15 01:23:10;;;;;;;7.93;6.63;;;5.90;65.30;;;;;;4953884;29;20409;-71
2021/01/15 01:25:36;;;;;;;8.00;6.17;;;5.90;66.00;;;;;;4954087;29;20837;-71
2021/01/15 01:28:02;;;;;;;8.30;6.15;;;5.90;66.40;;;;;;4950116;29;20499;-71
2021/01/15 01:30:28;;;;;;;8.85;6.80;;;5.80;66.80;;;;;;4955028;29;20406;-71
2021/01/15 01:32:54;;;;;;;8.13;5.90;;;5.70;65.70;;;;;;4953923;29;20488;-71
2021/01/15 01:35:20;;;;;;;8.53;6.20;;;5.70;66.00;;;;;;4957920;28;20397;-72
2021/01/15 01:37:45;;;;;;;7.90;6.20;;;5.70;66.90;;;;;;4961099;28;20476;-71
2021/01/15 01:40:15;;;;;;;8.02;6.32;;;5.60;66.60;;;;;;4957656;28;20905;-72
2021/01/15 01:42:41;;;;;;;10.32;6.28;;;5.60;67.00;;;;;;4943088;28;20964;-72
2021/01/15 01:45:09;;;;;;;9.50;6.80;;;5.60;67.00;;;;;;4954649;28;20390;-71
2021/01/15 01:47:35;;;;;;;9.50;6.70;;;5.60;66.40;;;;;;4954767;28;20500;-71
2021/01/15 01:50:00;;;;;;;9.95;6.97;;;5.50;67.60;;;;;;4950396;29;20435;-72
2021/01/15 01:52:27;;;;;;;10.00;7.30;;;5.50;67.80;;;;;;4941809;29;20418;-71
2021/01/15 01:54:53;;;;;;;8.40;6.30;;;5.40;67.90;;;;;;4946642;29;20397;-71
2021/01/15 01:57:20;;;;;;;8.90;6.63;;;5.40;67.40;;;;;;4953348;29;20453;-71
2021/01/15 01:59:45;;;;;;;7.90;6.13;;;5.40;68.50;;;;;;4954657;28;20394;-71
2021/01/15 02:02:11;;;;;;;7.63;5.70;;;5.40;68.70;;;;;;4983830;23;20435;-71
2021/01/15 02:04:37;;;;;;;6.53;5.15;;;5.60;67.80;;;;;;4992508;28;20403;-71
2021/01/15 02:07:03;;;;;;;6.57;5.55;;;5.70;67.00;;;;;;4991574;28;20929;-71
2021/01/15 02:09:38;;;;;;;7.70;5.40;;;5.70;66.80;;;;;;4991395;28;20489;-71
2021/01/15 02:12:13;;;;;;;8.50;6.15;;;5.60;67.90;;;;;;4993036;28;20456;-73
2021/01/15 02:14:54;;;;;;;7.97;5.95;;;5.60;68.20;;;;;;5000009;28;20412;-73
2021/01/15 02:17:25;;;;;;;10.35;6.70;;;5.40;68.60;;;;;;4992762;28;20456;-73
2021/01/15 02:20:02;;;;;;;7.05;5.50;;;5.30;68.30;;;;;;4992805;28;20397;-73
2021/01/15 02:22:47;;;;;;;6.97;5.47;;;5.40;69.30;;;;;;4992682;28;20393;-74
2021/01/15 02:25:52;;;;;;;9.77;6.53;;;5.30;70.80;;;;;;4991523;28;20411;-73
2021/01/15 02:29:02;;;;;;;7.97;5.80;;;5.30;70.80;;;;;;4980973;28;20446;-73
2021/01/15 02:32:08;;;;;;;9.35;6.53;;;5.20;70.70;;;;;;4992448;28;20418;-73
2021/01/15 02:34:50;;;;;;;10.68;6.95;;;5.30;70.70;;;;;;4991203;28;20442;-73
2021/01/15 02:37:20;;;;;;;9.27;6.72;;;5.20;69.40;;;;;;4992527;28;20964;-73
2021/01/15 02:39:58;;;;;;;11.35;6.75;;;5.00;70.30;;;;;;4992206;28;20905;-73
2021/01/15 02:42:25;;;;;;;9.00;6.07;;;4.90;69.40;;;;;;4991363;28;20394;-73
2021/01/15 02:44:53;;;;;;;9.53;6.50;;;5.00;69.40;;;;;;4992290;28;20831;-73
2021/01/15 02:47:23;;;;;;;10.68;6.35;;;5.00;70.10;;;;;;4992578;28;20413;-73
2021/01/15 02:49:50;;;;;;;10.20;6.10;;;5.00;69.00;;;;;;4992152;28;20391;-73
2021/01/15 02:52:17;;;;;;;10.03;6.07;;;5.00;69.30;;;;;;4983036;28;20822;-73
2021/01/15 02:54:44;;;;;;;9.48;6.32;;;5.00;68.90;;;;;;4988686;28;20405;-74
2021/01/15 02:57:09;;;;;;;9.95;6.05;;;5.00;70.10;;;;;;4995298;28;20414;-74
2021/01/15 02:59:35;;;;;;;8.90;6.07;;;4.90;69.10;;;;;;4996735;28;20750;-73
2021/01/15 03:02:07;;;;;;;10.30;6.50;;;4.90;69.00;;;;;;4995810;28;20394;-73
2021/01/15 03:04:40;;;;;;;9.98;6.20;;;4.80;69.10;;;;;;4983760;28;20423;-73
2021/01/15 03:07:10;;;;;;;12.63;7.28;;;4.80;68.30;;;;;;4975218;28;20400;-74
2021/01/15 03:09:39;;;;;;;11.07;6.57;;;4.80;68.10;;;;;;4976830;28;20400;-73
2021/01/15 03:12:06;;;;;;;11.10;7.07;;;4.90;68.80;;;;;;4992812;28;20426;-73
2021/01/15 03:14:35;;;;;;;10.57;7.10;;;4.90;69.50;;;;;;4986400;28;20425;-73
2021/01/15 03:17:05;;;;;;;11.30;6.53;;;4.90;70.50;;;;;;4974873;28;20915;-74
2021/01/15 03:19:32;;;;;;;16.15;8.68;;;4.90;70.90;;;;;;4984249;28;20391;-74
2021/01/15 03:22:09;;;;;;;12.63;7.47;;;4.80;70.30;;;;;;4982137;28;20958;-73
2021/01/15 03:24:34;;;;;;;10.23;7.30;;;4.80;70.70;;;;;;4979344;28;20759;-73
2021/01/15 03:27:01;;;;;;;10.73;6.57;;;4.80;70.40;;;;;;4976563;28;20399;-73
2021/01/15 03:29:27;;;;;;;9.38;6.68;;;4.90;70.70;;;;;;4976151;28;20899;-73
2021/01/15 03:31:52;;;;;;;9.83;6.63;;;4.90;71.10;;;;;;4976245;28;20471;-73
2021/01/15 03:34:18;;;;;;;9.48;6.45;;;4.90;71.70;;;;;;4975990;28;20400;-73
2021/01/15 03:36:44;;;;;;;8.60;6.05;;;4.90;72.80;;;;;;4976559;28;20399;-73
2021/01/15 03:39:11;;;;;;;11.38;7.70;;;4.90;72.60;;;;;;4975939;28;20392;-72
2021/01/15 03:41:37;;;;;;;11.82;8.30;;;4.90;72.20;;;;;;4976197;28;20396;-73
2021/01/15 03:44:03;;;;;;;9.53;6.40;;;4.80;70.80;;;;;;4974764;28;20443;-73
2021/01/15 03:46:32;;;;;;;9.65;6.10;;;4.80;71.60;;;;;;4975936;28;20476;-73
2021/01/15 03:48:57;;;;;;;7.53;5.72;;;4.90;72.20;;;;;;4976051;28;20832;-73
2021/01/15 03:51:23;;;;;;;8.60;6.07;;;4.80;72.70;;;;;;4974572;28;20524;-73
2021/01/15 03:53:49;;;;;;;8.98;5.93;;;4.70;72.10;;;;;;4975901;28;20415;-73
2021/01/15 03:56:19;;;;;;;7.93;5.60;;;4.70;72.80;;;;;;4974791;28;20419;-73
2021/01/15 03:58:45;;;;;;;8.63;5.13;;;4.70;72.80;;;;;;4975783;28;20404;-73
2021/01/15 04:01:11;;;;;;;8.05;5.00;;;4.80;73.20;;;;;;4975892;28;20411;-73
2021/01/15 04:03:37;;;;;;;6.43;4.80;;;4.70;73.10;;;;;;4983044;28;20744;-72
2021/01/15 04:06:04;;;;;;;6.97;4.57;;;4.70;72.90;;;;;;4975017;28;20891;-73
2021/01/15 04:08:30;;;;;;;6.60;4.70;;;4.70;71.40;;;;;;4975525;28;20748;-73
2021/01/15 04:10:55;;;;;;;6.93;4.60;;;4.70;71.00;;;;;;4982839;28;20430;-72
2021/01/15 04:13:22;;;;;;;7.35;4.78;;;4.70;71.50;;;;;;4995297;28;20935;-73
2021/01/15 04:15:48;;;;;;;5.95;4.50;;;4.70;71.30;;;;;;4995048;28;20908;-72
2021/01/15 04:18:14;;;;;;;6.10;4.60;;;4.70;72.10;;;;;;4982774;28;20400;-72
2021/01/15 04:20:40;;;;;;;7.47;5.30;;;4.70;72.30;;;;;;4989160;28;20403;-72
2021/01/15 04:23:07;;;;;;;7.72;4.60;;;4.60;73.30;;;;;;4975610;28;20392;-73
2021/01/15 04:25:33;;;;;;;8.40;4.88;;;4.60;72.30;;;;;;4974104;28;20404;-72
2021/01/15 04:28:00;;;;;;;7.57;4.90;;;4.60;73.50;;;;;;4983056;28;20402;-73
2021/01/15 04:30:27;;;;;;;8.10;5.15;;;4.60;73.20;;;;;;4981478;28;20396;-72
2021/01/15 04:32:53;;;;;;;6.68;4.53;;;4.50;72.50;;;;;;4975351;28;20427;-73
2021/01/15 04:35:20;;;;;;;5.05;3.97;;;4.50;72.70;;;;;;4975388;28;20413;-73
2021/01/15 04:37:47;;;;;;;6.60;4.55;;;4.50;73.30;;;;;;4974966;28;20495;-72
2021/01/15 04:40:14;;;;;;;6.13;4.10;;;4.50;73.70;;;;;;4975378;28;20406;-72
2021/01/15 04:42:42;;;;;;;6.65;4.32;;;4.40;73.20;;;;;;4990574;28;20394;-73
2021/01/15 04:45:10;;;;;;;5.95;4.03;;;4.40;73.30;;;;;;4982183;28;20404;-72
2021/01/15 04:47:41;;;;;;;5.13;3.90;;;4.40;73.80;;;;;;4974989;28;20408;-73
2021/01/15 04:50:10;;;;;;;6.30;4.25;;;4.40;73.80;;;;;;4974884;28;20396;-73
2021/01/15 04:52:44;;;;;;;7.32;4.38;;;4.40;73.00;;;;;;4988098;28;20917;-72
2021/01/15 04:55:22;;;;;;;5.70;3.78;;;4.30;73.40;;;;;;4974136;28;20407;-72
2021/01/15 04:57:50;;;;;;;5.65;3.47;;;4.30;74.20;;;;;;4961782;28;20410;-73
2021/01/15 05:00:21;;;;;;;6.40;4.63;;;4.30;74.40;;;;;;4973587;28;20458;-72
2021/01/15 05:02:48;;;;;;;7.43;5.60;;;4.30;74.50;;;;;;4974610;28;20572;-72
2021/01/15 05:05:19;;;;;;;8.05;5.60;;;4.20;75.80;;;;;;4974733;28;20423;-72
2021/01/15 05:07:52;;;;;;;8.45;5.45;;;;;;;;;;4974799;28;20447;-72
2021/01/15 05:10:28;;;;;;;7.47;5.03;;;3.90;77.60;;;;;;4963672;28;20946;-73
2021/01/15 05:12:55;;;;;;;6.63;5.32;;;3.90;78.70;;;;;;4983655;28;20499;-72
2021/01/15 05:15:24;;;;;;;8.77;5.07;;;3.80;79.20;;;;;;4988199;28;20489;-73
2021/01/15 05:17:54;;;;;;;6.28;4.90;;;3.80;78.90;;;;;;4981900;28;20387;-73
2021/01/15 05:20:21;;;;;;;6.22;4.60;;;3.70;78.90;;;;;;4979976;28;20404;-72
2021/01/15 05:22:47;;;;;;;7.30;5.25;;;3.80;78.50;;;;;;4993879;28;20386;-73
2021/01/15 05:25:13;;;;;;;7.88;5.43;;;3.80;78.50;;;;;;4981354;28;20388;-73
2021/01/15 05:27:43;;;;;;;6.03;4.20;;;3.80;78.80;;;;;;4974083;28;20910;-72
2021/01/15 05:30:17;;;;;;;7.53;5.25;;;3.70;79.30;;;;;;4962205;28;20444;-72
2021/01/15 05:32:43;;;;;;;6.33;4.40;;;3.60;78.20;;;;;;4976471;28;20465;-73
2021/01/15 05:35:11;;;;;;;7.00;5.18;;;3.60;78.90;;;;;;4985754;28;20405;-72
2021/01/15 05:37:37;;;;;;;8.70;6.30;;;3.60;78.80;;;;;;4982835;28;20500;-73
2021/01/15 05:40:05;;;;;;;9.48;6.47;;;3.50;79.00;;;;;;4986266;28;20460;-73
2021/01/15 05:42:44;;;;;;;8.00;6.13;;;3.50;78.90;;;;;;4965298;28;20388;-72
2021/01/15 05:45:14;;;;;;;8.25;5.72;;;3.60;79.20;;;;;;4956452;28;20473;-73
2021/01/15 05:47:44;;;;;;;9.15;6.00;;;3.60;79.90;;;;;;4972479;28;20410;-72
2021/01/15 05:50:11;;;;;;;8.77;5.68;;;3.60;80.40;;;;;;4972783;28;20405;-73
2021/01/15 05:52:52;;;;;;;7.03;5.70;;;3.60;80.80;;;;;;4980857;28;20775;-72
2021/01/15 05:55:19;;;;;;;8.98;6.10;;;3.50;81.80;;;;;;4957539;28;20430;-72
2021/01/15 05:57:48;;;;;;;9.77;6.90;;;3.40;83.00;;;;;;4959543;28;20496;-72
2021/01/15 06:00:32;;;;;;;9.32;6.50;;;3.30;84.90;;;;;;4956765;28;20451;-73
2021/01/15 06:02:58;;;;;;;10.65;6.65;;;3.10;84.90;;;;;;4979600;28;20420;-73
2021/01/15 06:05:25;;;;;;;9.93;7.03;;;3.00;85.50;;;;;;4968374;28;20406;-73
2021/01/15 06:07:54;;;;;;;10.82;6.93;;;3.00;85.60;;;;;;4979272;28;20421;-73
2021/01/15 06:10:20;;;;;;;10.25;7.32;;;3.00;85.40;;;;;;4960211;28;20442;-73
2021/01/15 06:12:46;;;;;;;9.90;6.93;;;3.10;85.60;;;;;;4960745;28;20537;-73
2021/01/15 06:15:13;;;;;;;9.20;7.00;;;3.10;86.10;;;;;;4958210;28;20541;-73
2021/01/15 06:17:39;;;;;;;9.73;6.73;;;3.10;86.10;;;;;;4981632;28;20483;-73
2021/01/15 06:20:06;;;;;;;10.27;7.15;;;3.20;86.10;;;;;;4979714;28;20404;-73
2021/01/15 06:22:36;;;;;;;9.32;7.20;;;3.30;85.70;;;;;;4984658;28;20396;-73
2021/01/15 06:25:12;;;;;;;11.75;7.80;;;3.30;86.50;;;;;;4972130;28;20861;-72
2021/01/15 06:27:40;;;;;;;13.75;8.27;;;3.30;86.80;;;;;;4983449;28;20506;-72
2021/01/15 06:30:08;;;;;;;10.27;7.68;;;3.40;86.00;;;;;;4986209;28;20402;-72
2021/01/15 06:32:34;;;;;;;12.48;8.13;;;3.40;85.80;;;;;;4988340;28;20428;-72
2021/01/15 06:35:01;;;;;;;10.57;7.50;;;3.20;88.10;;;;;;4962391;28;20410;-72
2021/01/15 06:37:29;;;;;;;9.57;7.47;;;3.20;87.40;;;;;;4955744;28;20409;-72
2021/01/15 06:40:07;;;;;;;10.75;7.57;;;3.10;88.30;;;;;;4966676;28;20436;-72
2021/01/15 06:42:43;;;;;;;11.73;8.00;;;3.10;88.20;;;;;;4977717;28;20509;-72
2021/01/15 06:45:13;;;;;;;11.90;8.55;;;3.10;88.70;;;;;;4968969;28;20453;-72
2021/01/15 06:47:40;;;;;;;12.32;8.80;;;3.10;88.90;;;;;;4985054;28;20495;-72
2021/01/15 06:50:12;;;;;;;12.75;8.80;;;3.10;89.10;;;;;;4956897;28;20405;-72
2021/01/15 06:52:42;;;;;;;14.43;9.60;;;3.10;88.70;;;;;;4967806;28;20473;-72
2021/01/15 06:55:15;;;;;;;14.85;8.27;;;3.10;89.10;;;;;;4974292;28;20498;-72
2021/01/15 06:57:46;;;;;;;13.07;7.95;;;3.10;89.40;;;;;;4961416;28;20518;-72
2021/01/15 07:00:14;;;;;;;12.50;8.32;;;3.20;88.80;;;;;;4971655;28;20540;-72
2021/01/15 07:03:18;;;;;;;13.27;8.40;;;3.30;88.90;;;;;;4971477;28;20427;-72
2021/01/15 07:05:46;;;;;;;10.98;8.02;;;3.30;89.60;;;;;;4964041;28;20498;-72
2021/01/15 07:08:13;;;;;;;11.27;8.07;;;3.40;88.60;;;;;;4972729;28;20403;-72
2021/01/15 07:10:40;;;;;;;11.30;7.85;;;3.50;88.90;;;;;;4971397;28;20763;-72
2021/01/15 07:13:10;;;;;;;10.27;7.38;;;3.50;88.90;;;;;;4971729;28;20458;-72
2021/01/15 07:15:41;;;;;;;12.35;7.60;;;3.50;89.50;;;;;;4971414;28;20461;-72
2021/01/15 07:18:19;;;;;;;9.82;6.60;;;3.50;89.10;;;;;;4972955;28;20940;-72
2021/01/15 07:20:58;;;;;;;9.80;6.88;;;3.70;88.80;;;;;;4976446;28;20395;-72
2021/01/15 07:23:47;;;;;;;9.27;7.07;;;3.70;88.40;;;;;;4990984;28;20399;-72
2021/01/15 07:26:16;;;;;;;9.97;5.97;;;3.80;88.30;;;;;;4985847;28;20466;-72
2021/01/15 07:28:42;;;;;;;9.80;7.25;;;3.80;88.10;;;;;;4972959;28;20392;-72
2021/01/15 07:31:22;;;;;;;8.25;6.20;;;3.70;88.80;;;;;;4977717;28;20394;-72
2021/01/15 07:34:00;;;;;;;11.00;7.05;;;3.70;89.30;;;;;;4979133;28;20483;-72
2021/01/15 07:36:36;;;;;;;9.00;6.25;;;3.80;88.70;;;;;;4960359;28;20414;-72
2021/01/15 07:39:11;;;;;;;10.15;6.90;;;3.80;89.10;;;;;;4971154;28;20860;-72
2021/01/15 07:41:43;;;;;;;9.70;7.20;;;3.80;88.90;;;;;;4973812;28;20532;-73
2021/01/15 07:44:39;;;;;;;10.77;7.97;;;3.80;88.80;;;;;;4988415;28;20402;-72
2021/01/15 07:47:11;;;;;;;13.48;7.78;;;3.90;88.20;;;;;;4994423;28;20403;-72
2021/01/15 07:49:47;;;;;;;10.77;7.73;;;3.90;87.70;;;;;;4990101;28;20462;-72
2021/01/15 07:52:14;;;;;;;9.77;7.35;;;3.90;87.90;;;;;;4976016;28;20427;-72
2021/01/15 07:55:02;;;;;;;11.60;7.82;;;3.90;88.20;;;;;;4973008;28;20408;-72
2021/01/15 07:57:32;;;;;;;10.48;7.30;;;3.80;88.40;;;;;;4968531;28;20401;-72
2021/01/15 08:00:24;;;;;;;11.27;8.15;;;3.80;88.80;;;;;;4974537;28;20404;-73
2021/01/15 08:02:57;;;;;;;10.25;8.20;;;3.80;88.90;;;;;;4974359;28;20412;-72
2021/01/15 08:05:23;;;;;;;11.60;8.18;;;3.70;89.70;;;;;;4970253;28;20459;-72
2021/01/15 08:07:49;;;;;;;10.23;7.45;;;3.70;90.20;;;;;;4957022;28;20493;-72
2021/01/15 08:10:23;;;;;;;16.83;11.02;;;3.60;90.30;;;;;;4974810;28;20485;-72
2021/01/15 08:12:53;;;;;;;15.27;11.02;;;3.60;90.80;;;;;;4975777;28;20432;-72
2021/01/15 08:15:29;;;;;;;16.20;9.95;;;3.60;91.00;;;;;;4975504;28;20396;-72
2021/01/15 08:17:55;;;;;;;20.40;13.63;;;3.50;90.90;;;;;;4984166;28;20889;-72
2021/01/15 08:20:22;;;;;;;20.05;12.60;;;3.60;91.20;;;;;;4994164;28;20920;-72
2021/01/15 08:22:51;;;;;;;18.17;11.93;;;3.60;91.20;;;;;;4974360;28;20737;-71
2021/01/15 08:25:24;;;;;;;18.98;12.68;;;3.50;91.80;;;;;;4975519;28;20400;-72
2021/01/15 08:27:50;;;;;;;23.40;14.80;;;3.50;91.70;;;;;;4975593;28;20473;-72
2021/01/15 08:30:18;;;;;;;33.80;18.97;;;3.50;92.00;;;;;;4974152;28;20891;-73
2021/01/15 08:32:44;;;;;;;28.02;17.17;;;3.60;92.10;;;;;;4991742;28;20501;-72
2021/01/15 08:35:12;;;;;;;32.03;20.55;;;3.60;92.30;;;;;;4984386;28;20483;-72
2021/01/15 08:37:40;;;;;;;35.28;20.83;;;3.60;92.20;;;;;;4973760;28;20759;-72
2021/01/15 08:40:07;;;;;;;32.97;19.60;;;3.60;92.90;;;;;;4984094;28;20431;-71
2021/01/15 08:42:34;;;;;;;56.65;33.00;;;3.50;93.00;;;;;;4979203;28;20432;-72
2021/01/15 08:45:00;;;;;;;43.97;23.83;;;3.50;93.30;;;;;;4979916;28;20402;-72
2021/01/15 08:47:32;;;;;;;29.33;18.55;;;3.50;93.40;;;;;;4979921;28;20397;-72
2021/01/15 08:49:58;;;;;;;28.55;17.77;;;3.60;93.30;;;;;;4986562;28;20908;-71
2021/01/15 08:52:27;;;;;;;23.83;15.43;;;3.70;93.10;;;;;;4973584;28;20417;-72
2021/01/15 08:54:53;;;;;;;26.52;18.08;;;3.70;93.40;;;;;;4974694;28;20392;-72
2021/01/15 08:57:20;;;;;;;23.70;17.70;;;3.70;93.60;;;;;;4982837;28;20449;-72
2021/01/15 08:59:46;;;;;;;22.92;17.17;;;3.80;93.40;;;;;;4975915;28;20414;-72
2021/01/15 09:02:13;;;;;;;25.48;16.00;;;3.90;93.20;;;;;;4982073;28;20390;-72
2021/01/15 09:04:44;;;;;;;22.90;15.65;;;4.00;94.00;;;;;;4991424;28;20391;-72
2021/01/15 09:07:10;;;;;;;24.35;16.50;;;4.00;94.00;;;;;;4969745;28;20453;-72
2021/01/15 09:09:36;;;;;;;27.75;17.20;;;4.10;94.00;;;;;;4980200;28;20464;-71
2021/01/15 09:12:04;;;;;;;28.55;19.02;;;4.00;93.00;;;;;;4976381;28;20507;-72
2021/01/15 09:14:33;;;;;;;47.33;34.53;;;4.10;93.20;;;;;;4981710;28;20414;-72
2021/01/15 09:17:00;;;;;;;29.70;19.95;;;4.10;92.60;;;;;;4979149;28;20392;-71
2021/01/15 09:19:26;;;;;;;25.83;19.38;;;4.10;91.90;;;;;;4973302;28;20409;-72
2021/01/15 09:22:00;;;;;;;23.30;17.08;;;4.20;91.50;;;;;;4987296;28;20386;-71
2021/01/15 09:24:26;;;;;;;21.65;16.33;;;4.30;91.40;;;;;;4961298;28;20778;-71
2021/01/15 09:26:55;;;;;;;22.17;16.33;;;4.50;91.60;;;;;;4974414;28;20467;-72
2021/01/15 09:29:21;;;;;;;25.65;16.65;;;4.60;91.60;;;;;;4974154;28;20404;-72
2021/01/15 09:31:47;;;;;;;22.77;14.25;;;4.60;91.00;;;;;;4973019;28;21017;-72
2021/01/15 09:34:13;;;;;;;18.80;13.50;;;4.70;91.10;;;;;;4974083;28;20934;-72
2021/01/15 09:36:41;;;;;;;16.70;12.27;;;4.70;91.50;;;;;;4981379;28;20406;-72
2021/01/15 09:39:09;;;;;;;17.47;10.87;;;4.70;91.20;;;;;;4977203;28;20425;-72
2021/01/15 09:41:35;;;;;;;17.73;11.45;;;4.60;90.30;;;;;;4974266;28;20459;-72
2021/01/15 09:44:01;;;;;;;16.02;11.98;;;4.70;90.30;;;;;;4985760;28;20398;-73
2021/01/15 09:46:34;;;;;;;18.80;13.27;;;4.70;90.60;;;;;;4974076;28;20399;-72
2021/01/15 09:49:00;;;;;;;17.50;12.00;;;4.80;90.50;;;;;;4984895;28;20719;-71
2021/01/15 09:51:28;;;;;;;13.10;10.33;;;5.00;90.10;;;;;;4974959;28;20411;-72
2021/01/15 09:53:55;;;;;;;16.15;10.20;;;5.00;89.60;;;;;;4982914;28;20889;-73
2021/01/15 09:56:23;;;;;;;15.47;10.53;;;5.10;89.60;;;;;;4987209;28;20458;-73
2021/01/15 09:58:49;;;;;;;17.45;10.65;;;5.00;88.20;;;;;;4973965;28;20436;-72
2021/01/15 10:01:15;;;;;;;12.57;9.35;;;4.90;89.00;;;;;;4973699;28;20462;-72
2021/01/15 10:03:41;;;;;;;12.90;9.55;;;5.00;89.70;;;;;;4967625;28;20410;-72
2021/01/15 10:06:07;;;;;;;15.18;11.00;;;5.10;89.70;;;;;;4954751;28;20492;-72
2021/01/15 10:08:32;;;;;;;13.47;9.23;;;5.30;90.80;;;;;;4971647;28;20400;-72
2021/01/15 10:10:58;;;;;;;13.73;10.15;;;5.30;91.00;;;;;;4973469;28;20403;-72
2021/01/15 10:13:27;;;;;;;12.57;9.55;;;5.30;91.00;;;;;;4973583;28;20448;-72
2021/01/15 10:15:53;;;;;;;12.77;9.82;;;5.30;91.00;;;;;;4977792;28;20539;-72
2021/01/15 10:18:19;;;;;;;11.55;8.43;;;5.20;90.40;;;;;;4980060;28;20428;-72
2021/01/15 10:20:45;;;;;;;13.20;9.50;;;5.20;90.20;;;;;;4975661;28;20402;-72
2021/01/15 10:23:11;;;;;;;11.75;9.10;;;5.20;89.70;;;;;;4981785;28;20444;-72
2021/01/15 10:25:39;;;;;;;14.73;10.82;;;5.20;89.50;;;;;;4973189;28;20398;-72
2021/01/15 10:28:05;;;;;;;13.05;9.70;;;5.10;90.10;;;;;;4973444;28;20454;-72
2021/01/15 10:30:35;;;;;;;14.27;10.18;;;5.10;90.20;;;;;;4973169;28;20396;-72
2021/01/15 10:33:01;;;;;;;15.32;10.68;;;5.10;90.30;;;;;;4972123;28;20838;-73
2021/01/15 10:35:26;;;;;;;12.57;9.73;;;5.10;90.20;;;;;;4972053;28;20487;-72
2021/01/15 10:37:52;;;;;;;14.35;10.75;;;5.20;90.00;;;;;;4971877;28;20412;-74
2021/01/15 10:40:18;;;;;;;14.05;10.38;;;5.10;88.50;;;;;;4971976;28;20412;-73
2021/01/15 10:42:46;;;;;;;13.77;10.43;;;5.10;88.50;;;;;;4988740;28;20772;-73
2021/01/15 10:45:14;;;;;;;14.43;10.63;;;5.10;89.50;;;;;;4982568;28;20404;-72
2021/01/15 10:47:41;;;;;;;14.43;10.38;;;5.10;89.70;;;;;;4972130;28;20500;-73
2021/01/15 10:50:08;;;;;;;16.35;11.13;;;5.20;89.70;;;;;;4977952;28;20410;-73
2021/01/15 10:52:34;;;;;;;14.32;10.63;;;5.10;88.10;;;;;;4989702;28;20992;-72
2021/01/15 10:55:00;;;;;;;16.58;11.05;;;5.00;88.80;;;;;;4970186;28;20408;-73
2021/01/15 10:57:26;;;;;;;14.63;10.32;;;5.00;88.80;;;;;;4971879;28;20400;-72
2021/01/15 10:59:52;;;;;;;15.15;10.20;;;5.10;88.60;;;;;;4984910;28;20490;-72
2021/01/15 11:02:18;;;;;;;14.63;9.57;;;5.20;88.60;;;;;;4972870;28;20400;-71
2021/01/15 11:04:45;;;;;;;14.47;9.70;;;5.20;88.40;;;;;;4981708;28;20497;-72
2021/01/15 11:07:11;;;;;;;15.65;10.40;;;5.20;88.60;;;;;;4979198;28;20399;-72
2021/01/15 11:09:36;;;;;;;12.45;10.02;;;5.20;89.60;;;;;;4978734;28;20450;-72
2021/01/15 11:12:03;;;;;;;15.93;11.15;;;5.20;89.80;;;;;;4974736;28;20454;-71
2021/01/15 11:14:29;;;;;;;20.83;13.18;;;5.30;89.70;;;;;;4965006;28;20514;-72
2021/01/15 11:16:55;;;;;;;21.17;13.82;;;5.30;89.70;;;;;;4981249;28;20402;-72
2021/01/15 11:19:22;;;;;;;16.48;12.38;;;5.30;90.10;;;;;;4982822;28;20410;-72
2021/01/15 11:21:52;;;;;;;17.40;13.07;;;;;;;;;;4984106;28;20461;-72
2021/01/15 11:24:19;;;;;;;19.13;13.20;;;5.50;88.60;;;;;;4975306;28;20910;-72
2021/01/15 11:26:45;;;;;;;16.17;12.20;;;5.60;88.60;;;;;;4976644;28;20403;-73
2021/01/15 11:29:11;;;;;;;17.55;11.85;;;5.50;88.40;;;;;;4960004;28;20398;-72
2021/01/15 11:31:38;;;;;;;13.80;10.65;;;5.40;88.20;;;;;;4966271;28;20475;-72
2021/01/15 11:34:04;;;;;;;13.57;10.50;;;5.50;88.30;;;;;;4976271;28;20759;-73
2021/01/15 11:36:30;;;;;;;12.07;9.50;;;5.70;86.40;;;;;;4968126;28;20406;-71
2021/01/15 11:38:57;;;;;;;14.43;9.75;;;5.70;85.10;;;;;;4985300;28;20905;-72
2021/01/15 11:41:23;;;;;;;14.70;10.43;;;5.90;85.40;;;;;;4976054;28;20412;-72
2021/01/15 11:43:49;;;;;;;15.45;10.77;;;5.90;85.40;;;;;;4986198;28;20746;-72
2021/01/15 11:46:15;;;;;;;14.82;10.63;;;6.00;85.50;;;;;;4977649;28;20416;-72
2021/01/15 11:48:41;;;;;;;14.30;9.90;;;6.10;85.00;;;;;;4982534;28;20485;-71
2021/01/15 11:51:10;;;;;;;12.97;9.77;;;6.00;84.80;;;;;;4965599;28;20406;-72
2021/01/15 11:53:37;;;;;;;14.02;10.30;;;6.00;85.00;;;;;;4957980;28;20513;-71
2021/01/15 11:56:09;;;;;;;15.20;11.32;;;5.90;85.70;;;;;;4972715;28;20424;-71
2021/01/15 11:58:35;;;;;;;14.52;10.82;;;5.80;85.70;;;;;;4958099;28;20422;-72
2021/01/15 12:01:01;;;;;;;13.48;10.40;;;5.70;86.20;;;;;;4965866;28;20460;-72
2021/01/15 12:03:27;;;;;;;11.02;9.13;;;5.90;84.90;;;;;;4962394;28;20411;-72
2021/01/15 12:05:53;;;;;;;14.95;9.60;;;6.10;83.80;;;;;;4963949;28;20408;-73
2021/01/15 12:08:20;;;;;;;11.63;8.65;;;6.30;92.00;;;;;;4964320;28;20394;-72
2021/01/15 12:10:48;;;;;;;13.02;8.77;;;6.30;82.70;;;;;;4967593;28;20984;-72
2021/01/15 12:13:15;;;;;;;12.18;8.95;;;6.40;84.50;;;;;;4961863;28;20521;-72
2021/01/15 12:15:41;;;;;;;13.27;8.68;;;6.50;90.40;;;;;;4959849;28;20404;-72
2021/01/15 12:18:07;;;;;;;14.32;9.27;;;;;;;;;;4971908;28;20485;-72
2021/01/15 12:20:35;;;;;;;12.73;9.20;;;6.40;99.90;;;;;;4963846;28;20493;-72
2021/01/15 12:23:01;;;;;;;14.90;9.15;;;6.50;81.80;;;;;;4959278;28;20401;-72
2021/01/15 12:25:27;;;;;;;15.10;9.90;;;6.40;80.80;;;;;;4959423;28;20402;-73
2021/01/15 12:27:54;;;;;;;14.07;9.88;;;6.40;82.90;;;;;;4958150;28;20404;-73
2021/01/15 12:30:22;;;;;;;14.25;9.30;;;6.40;83.00;;;;;;4959991;28;20484;-72
2021/01/15 12:32:50;;;;;;;12.55;9.02;;;6.50;83.10;;;;;;4954845;28;20426;-73
2021/01/15 12:35:16;;;;;;;13.63;7.78;;;6.50;82.50;;;;;;4961750;28;20407;-73
2021/01/15 12:37:42;;;;;;;9.43;6.68;;;6.50;82.90;;;;;;4964685;28;20392;-73
2021/01/15 12:40:09;;;;;;;10.73;7.03;;;6.40;83.00;;;;;;4956354;28;20404;-73
2021/01/15 12:42:35;;;;;;;11.23;6.88;;;6.40;83.10;;;;;;4957653;28;20398;-73
2021/01/15 12:45:01;;;;;;;10.35;6.72;;;6.40;82.70;;;;;;4961428;28;20400;-73
2021/01/15 12:47:27;;;;;;;11.10;7.00;;;6.50;83.30;;;;;;4974116;28;20772;-73
2021/01/15 12:49:53;;;;;;;11.63;7.60;;;6.50;83.50;;;;;;4971400;28;20429;-73
2021/01/15 12:52:19;;;;;;;10.80;7.43;;;6.50;83.60;;;;;;4974261;28;20829;-73
2021/01/15 12:54:45;;;;;;;10.35;7.00;;;6.50;83.00;;;;;;4958473;28;20403;-73
2021/01/15 12:57:11;;;;;;;10.40;7.33;;;6.60;82.80;;;;;;4960395;28;20410;-73
2021/01/15 12:59:37;;;;;;;10.15;6.60;;;6.60;82.70;;;;;;4962752;28;20440;-73